createdAt,value
2023-03-04T00:00:52.382Z,54.20
2023-03-04T00:03:19.084Z,53.87
2023-03-04T00:05:47.197Z,53.87
2023-03-04T00:08:13.697Z,52.43
2023-03-04T00:10:40.194Z,52.43
2023-03-04T00:13:06.673Z,49.75
2023-03-04T00:15:33.184Z,56.60
2023-03-04T00:17:59.617Z,55.80
2023-03-04T00:20:29.137Z,54.37
2023-03-04T00:22:58.584Z,49.53
2023-03-04T00:25:27.170Z,49.57
2023-03-04T00:27:53.729Z,50.80
2023-03-04T00:30:20.298Z,52.67
2023-03-04T00:32:46.813Z,58.00
2023-03-04T00:35:13.280Z,60.50
2023-03-04T00:37:39.737Z,52.40
2023-03-04T00:40:06.708Z,51.57
2023-03-04T00:42:33.224Z,61.40
2023-03-04T00:44:59.665Z,58.70
2023-03-04T00:47:27.093Z,55.73
2023-03-04T00:49:53.571Z,53.23
2023-03-04T00:52:19.993Z,50.47
2023-03-04T00:54:46.533Z,56.60
2023-03-04T00:57:13.034Z,62.47
2023-03-04T00:59:40.785Z,57.67
2023-03-04T01:02:07.338Z,51.63
2023-03-04T01:04:33.798Z,52.83
2023-03-04T01:07:00.331Z,59.80
2023-03-04T01:09:29.151Z,58.80
2023-03-04T01:11:55.613Z,53.87
2023-03-04T01:14:22.064Z,58.00
2023-03-04T01:16:49.387Z,53.20
2023-03-04T01:19:16.520Z,55.90
2023-03-04T01:21:43.025Z,62.03
2023-03-04T01:24:09.497Z,63.20
2023-03-04T01:26:35.964Z,56.77
2023-03-04T01:29:03.441Z,48.23
2023-03-04T01:31:33.329Z,52.23
2023-03-04T01:34:03.323Z,57.07
2023-03-04T01:36:31.557Z,60.60
2023-03-04T01:39:00.215Z,56.47
2023-03-04T01:41:27.304Z,56.43
2023-03-04T01:44:01.475Z,63.13
2023-03-04T01:46:30.062Z,65.70
2023-03-04T01:48:57.052Z,51.47
2023-03-04T01:51:23.888Z,55.67
2023-03-04T01:53:53.360Z,53.23
2023-03-04T01:56:24.546Z,54.10
2023-03-04T01:59:11.468Z,61.57
2023-03-04T02:01:39.271Z,59.50
2023-03-04T02:04:07.855Z,65.33
2023-03-04T02:06:36.276Z,58.07
2023-03-04T02:09:07.302Z,54.67
2023-03-04T02:11:36.553Z,57.13
2023-03-04T02:14:06.839Z,64.47
2023-03-04T02:16:36.405Z,54.27
2023-03-04T02:19:44.224Z,53.80
2023-03-04T02:22:10.824Z,65.27
2023-03-04T02:24:48.012Z,64.43
2023-03-04T02:27:14.551Z,63.87
2023-03-04T02:29:41.117Z,62.93
2023-03-04T02:32:11.409Z,67.40
2023-03-04T02:34:47.564Z,65.60
2023-03-04T02:37:14.444Z,66.97
2023-03-04T02:39:43.706Z,54.63
2023-03-04T02:42:10.813Z,66.07
2023-03-04T02:44:40.215Z,67.33
2023-03-04T02:47:10.136Z,71.20
2023-03-04T02:49:38.978Z,68.73
2023-03-04T02:52:19.588Z,59.43
2023-03-04T02:54:46.446Z,66.17
2023-03-04T02:57:14.881Z,63.47
2023-03-04T02:59:42.363Z,66.07
2023-03-04T03:02:10.201Z,62.57
2023-03-04T03:04:38.534Z,64.47
2023-03-04T03:07:07.070Z,62.10
2023-03-04T03:09:36.656Z,67.60
2023-03-04T03:12:03.275Z,64.43
2023-03-04T03:14:29.821Z,61.27
2023-03-04T03:16:56.282Z,71.30
2023-03-04T03:19:22.738Z,64.30
2023-03-04T03:21:50.233Z,62.73
2023-03-04T03:24:16.782Z,63.93
2023-03-04T03:26:43.304Z,65.20
2023-03-04T03:29:09.814Z,67.18
2023-03-04T03:31:39.381Z,68.30
2023-03-04T03:34:07.053Z,65.87
2023-03-04T03:36:33.554Z,62.93
2023-03-04T03:39:00.060Z,58.40
2023-03-04T03:41:26.542Z,66.20
2023-03-04T03:43:53.019Z,63.57
2023-03-04T03:46:19.486Z,68.30
2023-03-04T03:48:45.987Z,58.20
2023-03-04T03:51:12.462Z,67.93
2023-03-04T03:53:41.583Z,57.67
2023-03-04T03:56:11.194Z,57.57
2023-03-04T03:58:40.669Z,59.40
2023-03-04T04:01:09.218Z,68.22
2023-03-04T04:03:35.869Z,60.95
2023-03-04T04:06:02.403Z,64.75
2023-03-04T04:08:29.003Z,60.08
2023-03-04T04:10:55.446Z,64.57
2023-03-04T04:13:21.888Z,64.95
2023-03-04T04:15:48.308Z,60.72
2023-03-04T04:18:14.738Z,62.80
2023-03-04T04:20:41.299Z,63.83
2023-03-04T04:23:10.608Z,59.33
2023-03-04T04:25:37.146Z,62.73
2023-03-04T04:28:03.997Z,74.43
2023-03-04T04:30:30.474Z,55.03
2023-03-04T04:32:57.040Z,67.13
2023-03-04T04:35:23.651Z,61.27
2023-03-04T04:37:50.166Z,64.93
2023-03-04T04:40:16.892Z,57.77
2023-03-04T04:42:43.398Z,70.20
2023-03-04T04:45:13.194Z,65.83
2023-03-04T04:47:40.022Z,67.00
2023-03-04T04:50:07.126Z,66.30
2023-03-04T04:52:33.677Z,68.73
2023-03-04T04:55:00.163Z,67.97
2023-03-04T04:57:26.653Z,59.97
2023-03-04T04:59:53.221Z,61.47
2023-03-04T05:02:19.870Z,66.23
2023-03-04T05:04:46.523Z,57.50
2023-03-04T05:07:13.048Z,61.27
2023-03-04T05:09:41.772Z,62.13
2023-03-04T05:12:08.221Z,64.93
2023-03-04T05:14:34.728Z,57.17
2023-03-04T05:17:01.231Z,60.83
2023-03-04T05:19:27.689Z,59.63
2023-03-04T05:21:54.304Z,59.97
2023-03-04T05:24:20.899Z,63.97
2023-03-04T05:26:47.669Z,66.87
2023-03-04T05:29:14.152Z,67.00
2023-03-04T05:31:40.600Z,62.10
2023-03-04T05:34:07.437Z,64.73
2023-03-04T05:36:33.939Z,57.20
2023-03-04T05:39:00.452Z,56.13
2023-03-04T05:41:27.034Z,53.50
2023-03-04T05:43:53.594Z,61.07
2023-03-04T05:46:26.218Z,61.17
2023-03-04T05:48:54.132Z,67.43
2023-03-04T05:51:21.473Z,64.97
2023-03-04T05:53:49.143Z,57.20
2023-03-04T05:56:18.344Z,58.20
2023-03-04T05:58:48.039Z,58.28
2023-03-04T06:01:17.492Z,62.93
2023-03-04T06:03:49.211Z,55.70
2023-03-04T06:06:15.916Z,69.97
2023-03-04T06:08:44.477Z,54.00
2023-03-04T06:11:10.930Z,59.00
2023-03-04T06:13:38.258Z,61.03
2023-03-04T06:16:05.402Z,60.30
2023-03-04T06:18:31.911Z,55.63
2023-03-04T06:21:00.175Z,62.50
2023-03-04T06:23:27.763Z,58.40
2023-03-04T06:25:56.177Z,60.07
2023-03-04T06:28:23.339Z,57.93
2023-03-04T06:30:53.030Z,66.47
2023-03-04T06:33:19.785Z,56.60
2023-03-04T06:35:46.406Z,63.47
2023-03-04T06:38:15.989Z,58.50
2023-03-04T06:40:45.995Z,60.67
2023-03-04T06:43:16.464Z,72.13
2023-03-04T06:45:45.739Z,57.43
2023-03-04T06:48:15.664Z,60.20
2023-03-04T06:50:46.091Z,55.83
2023-03-04T06:53:16.411Z,60.07
2023-03-04T06:55:47.250Z,57.07
2023-03-04T06:58:20.649Z,61.07
2023-03-04T07:00:47.158Z,58.13
2023-03-04T07:03:17.873Z,61.17
2023-03-04T07:05:45.099Z,61.70
2023-03-04T07:08:14.142Z,58.90
2023-03-04T07:10:40.995Z,55.40
2023-03-04T07:13:07.522Z,59.67
2023-03-04T07:15:34.025Z,63.13
2023-03-04T07:18:00.484Z,60.77
2023-03-04T07:20:27.002Z,61.97
2023-03-04T07:22:53.544Z,56.00
2023-03-04T07:25:20.184Z,60.47
2023-03-04T07:27:46.670Z,60.43
2023-03-04T07:30:17.000Z,59.53
2023-03-04T07:32:46.642Z,58.57
2023-03-04T07:35:15.936Z,62.77
2023-03-04T07:37:47.149Z,53.67
2023-03-04T07:40:16.601Z,56.23
2023-03-04T07:42:49.901Z,57.20
2023-03-04T07:45:16.431Z,56.90
2023-03-04T07:47:46.193Z,55.60
2023-03-04T07:50:18.123Z,55.23
2023-03-04T07:52:50.884Z,59.47
2023-03-04T07:55:18.185Z,52.33
2023-03-04T07:57:47.486Z,55.33
2023-03-04T08:00:17.831Z,55.47
2023-03-04T08:02:47.902Z,53.70
2023-03-04T08:05:15.476Z,54.87
2023-03-04T08:07:43.762Z,54.70
2023-03-04T08:10:10.996Z,53.07
2023-03-04T08:12:37.431Z,53.63
2023-03-04T08:15:04.208Z,66.00
2023-03-04T08:17:30.789Z,60.53
2023-03-04T08:19:57.325Z,61.60
2023-03-04T08:22:23.799Z,52.93
2023-03-04T08:24:50.350Z,56.83
2023-03-04T08:27:16.894Z,52.63
2023-03-04T08:29:46.438Z,52.77
2023-03-04T08:32:15.833Z,54.50
2023-03-04T08:34:44.706Z,52.10
2023-03-04T08:37:11.267Z,63.28
2023-03-04T08:39:37.789Z,65.30
2023-03-04T08:42:04.241Z,56.03
2023-03-04T08:44:30.766Z,51.72
2023-03-04T08:46:57.409Z,55.65
2023-03-04T08:49:23.934Z,54.60
2023-03-04T08:51:50.394Z,57.70
2023-03-04T08:54:17.032Z,57.87
2023-03-04T08:56:46.346Z,55.30
2023-03-04T08:59:15.687Z,51.72
2023-03-04T09:01:44.386Z,57.85
2023-03-04T09:04:10.951Z,58.88
2023-03-04T09:06:37.471Z,54.90
2023-03-04T09:09:04.448Z,50.67
2023-03-04T09:11:31.688Z,55.78
2023-03-04T09:13:58.255Z,54.50
2023-03-04T09:16:24.840Z,54.33
2023-03-04T09:18:51.521Z,53.22
2023-03-04T09:21:18.101Z,50.88
2023-03-04T09:23:47.599Z,56.92
2023-03-04T09:26:26.832Z,53.90
2023-03-04T09:28:55.530Z,54.03
2023-03-04T09:31:22.272Z,53.20
2023-03-04T09:33:49.002Z,52.22
2023-03-04T09:36:15.985Z,54.70
2023-03-04T09:38:43.930Z,56.08
2023-03-04T09:41:24.278Z,61.58
2023-03-04T09:43:52.446Z,54.58
2023-03-04T09:46:27.503Z,49.17
2023-03-04T09:48:55.813Z,60.63
2023-03-04T09:51:25.426Z,53.53
2023-03-04T09:54:11.165Z,52.95
2023-03-04T09:56:39.878Z,55.47
2023-03-04T09:59:40.903Z,55.53
2023-03-04T10:02:22.856Z,52.78
2023-03-04T10:04:53.201Z,52.70
2023-03-04T10:07:34.421Z,57.60
2023-03-04T10:10:04.961Z,58.05
2023-03-04T10:12:35.711Z,62.45
2023-03-04T10:15:06.479Z,52.40
2023-03-04T10:17:38.083Z,58.88
2023-03-04T10:20:14.493Z,51.28
2023-03-04T10:22:49.548Z,53.60
2023-03-04T10:25:21.894Z,55.60
2023-03-04T10:28:03.159Z,50.33
2023-03-04T10:30:32.637Z,56.33
2023-03-04T10:32:59.604Z,54.25
2023-03-04T10:35:33.413Z,47.67
2023-03-04T10:38:03.488Z,52.50
2023-03-04T10:40:38.070Z,56.70
2023-03-04T10:43:14.828Z,50.58
2023-03-04T10:45:44.980Z,51.50
2023-03-04T10:48:29.220Z,50.78
2023-03-04T10:51:24.227Z,47.40
2023-03-04T10:53:58.207Z,58.17
2023-03-04T10:56:31.960Z,50.33
2023-03-04T10:59:53.823Z,50.33
2023-03-04T11:02:30.810Z,56.67
2023-03-04T11:05:17.840Z,52.70
2023-03-04T11:07:57.538Z,50.75
2023-03-04T11:10:31.766Z,46.58
2023-03-04T11:13:15.041Z,52.45
2023-03-04T11:15:58.446Z,45.17
2023-03-04T11:18:40.467Z,47.15
2023-03-04T11:21:14.695Z,46.75
2023-03-04T11:24:03.256Z,54.65
2023-03-04T11:26:45.379Z,45.20
2023-03-04T11:29:18.283Z,47.05
2023-03-04T11:32:12.669Z,46.55
2023-03-04T11:34:54.407Z,50.83
2023-03-04T11:37:45.907Z,43.88
2023-03-04T11:40:24.208Z,44.78
2023-03-04T11:43:00.753Z,47.20
2023-03-04T11:45:37.225Z,48.17
2023-03-04T11:48:24.741Z,49.28
2023-03-04T11:50:57.796Z,40.45
2023-03-04T11:53:56.067Z,47.97
2023-03-04T11:56:31.861Z,37.67
2023-03-04T11:59:10.353Z,43.97
2023-03-04T12:01:59.414Z,41.35
2023-03-04T12:05:03.711Z,40.08
2023-03-04T12:07:51.305Z,43.65
2023-03-04T12:10:20.785Z,42.90
2023-03-04T12:13:11.480Z,44.42
2023-03-04T12:15:46.508Z,42.08
2023-03-04T12:18:40.969Z,46.67
2023-03-04T12:21:19.543Z,43.00
2023-03-04T12:23:48.897Z,41.55
2023-03-04T12:26:30.474Z,42.05
2023-03-04T12:29:33.545Z,39.80
2023-03-04T12:32:21.539Z,48.53
2023-03-04T12:35:19.549Z,42.58
2023-03-04T12:38:00.521Z,39.35
2023-03-04T12:40:49.046Z,43.50
2023-03-04T12:43:39.332Z,44.08
2023-03-04T12:46:08.643Z,38.20
2023-03-04T12:48:46.295Z,39.85
2023-03-04T12:51:23.017Z,34.20
2023-03-04T12:54:03.265Z,39.42
2023-03-04T12:56:32.750Z,43.92
2023-03-04T12:59:00.591Z,35.05
2023-03-04T13:01:39.652Z,41.25
2023-03-04T13:04:34.065Z,34.50
2023-03-04T13:07:36.597Z,37.53
2023-03-04T13:10:16.651Z,37.65
2023-03-04T13:12:52.413Z,43.25
2023-03-04T13:15:32.905Z,38.90
2023-03-04T13:18:21.820Z,37.53
2023-03-04T13:21:23.792Z,32.63
2023-03-04T13:23:51.766Z,36.80
2023-03-04T13:26:18.827Z,36.58
2023-03-04T13:28:54.668Z,38.42
2023-03-04T13:31:27.212Z,32.95
2023-03-04T13:33:56.761Z,33.38
2023-03-04T13:36:34.755Z,29.60
2023-03-04T13:39:23.545Z,31.70
2023-03-04T13:41:53.645Z,32.72
2023-03-04T13:44:45.454Z,28.13
2023-03-04T13:47:21.575Z,35.97
2023-03-04T13:49:48.621Z,36.13
2023-03-04T13:52:43.662Z,35.88
2023-03-04T13:55:34.993Z,37.25
2023-03-04T13:58:14.309Z,39.42
2023-03-04T14:00:48.755Z,37.00
2023-03-04T14:03:22.662Z,34.55
2023-03-04T14:06:15.971Z,38.30
2023-03-04T14:08:46.750Z,32.03
2023-03-04T14:11:24.773Z,30.50
2023-03-04T14:13:52.420Z,40.50
2023-03-04T14:16:25.892Z,35.45
2023-03-04T14:19:01.218Z,30.55
2023-03-04T14:21:28.711Z,29.85
2023-03-04T14:24:23.524Z,29.73
2023-03-04T14:26:50.629Z,35.03
2023-03-04T14:29:26.367Z,39.40
2023-03-04T14:31:54.439Z,36.80
2023-03-04T14:34:37.809Z,32.22
2023-03-04T14:37:20.717Z,34.90
2023-03-04T14:39:53.537Z,33.38
2023-03-04T14:42:23.606Z,38.45
2023-03-04T14:44:51.217Z,42.83
2023-03-04T14:47:24.484Z,35.50
2023-03-04T14:49:51.449Z,34.05
2023-03-04T14:52:32.858Z,35.92
2023-03-04T14:55:17.836Z,31.20
2023-03-04T14:57:48.186Z,38.97
2023-03-04T15:00:26.049Z,36.50
2023-03-04T15:03:19.815Z,30.35
2023-03-04T15:05:47.851Z,32.13
2023-03-04T15:08:36.049Z,38.53
2023-03-04T15:11:05.570Z,42.80
2023-03-04T15:13:49.908Z,40.72
2023-03-04T15:16:19.593Z,43.53
2023-03-04T15:18:57.953Z,41.13
2023-03-04T15:21:28.369Z,34.30
2023-03-04T15:23:54.841Z,36.95
2023-03-04T15:26:21.370Z,32.13
2023-03-04T15:28:47.911Z,36.70
2023-03-04T15:31:22.553Z,34.53
2023-03-04T15:33:49.250Z,30.73
2023-03-04T15:36:23.348Z,38.83
2023-03-04T15:39:31.391Z,40.22
2023-03-04T15:42:12.427Z,44.67
2023-03-04T15:44:39.338Z,37.47
2023-03-04T15:47:08.778Z,47.28
2023-03-04T15:49:35.818Z,39.25
2023-03-04T15:52:06.146Z,54.08
2023-03-04T15:54:35.755Z,44.53
2023-03-04T16:07:50.931Z,42.08
2023-03-04T16:10:20.617Z,41.20
2023-03-04T16:12:51.935Z,48.60
2023-03-04T16:15:51.789Z,41.50
2023-03-04T16:18:18.337Z,40.72
2023-03-04T16:20:50.353Z,51.83
2023-03-04T16:23:20.902Z,45.63
2023-03-04T16:25:49.676Z,41.28
2023-03-04T16:28:18.905Z,35.47
2023-03-04T16:30:45.544Z,36.85
2023-03-04T16:33:12.079Z,38.63
2023-03-04T16:35:39.667Z,40.85
2023-03-04T16:38:18.957Z,46.03
2023-03-04T16:40:45.381Z,37.75
2023-03-04T16:43:14.133Z,40.85
2023-03-04T16:45:41.270Z,44.95
2023-03-04T16:48:07.732Z,44.10
2023-03-04T16:50:36.351Z,46.70
2023-03-04T16:53:04.488Z,39.25
2023-03-04T16:55:31.450Z,46.13
2023-03-04T16:57:58.299Z,49.05
2023-03-04T17:00:27.998Z,42.92
2023-03-04T17:02:57.939Z,42.80
2023-03-04T17:05:26.886Z,43.83
2023-03-04T17:07:53.610Z,48.85
2023-03-04T17:10:24.013Z,52.33
2023-03-04T17:12:54.216Z,48.38
2023-03-04T17:15:24.220Z,48.78
2023-03-04T17:17:56.815Z,38.65
2023-03-04T17:20:23.373Z,45.35
2023-03-04T17:22:53.629Z,41.10
2023-03-04T17:25:23.262Z,39.47
2023-03-04T17:27:51.776Z,43.60
2023-03-04T17:34:56.473Z,39.42
2023-03-04T17:37:54.921Z,45.40
2023-03-04T17:41:36.224Z,44.00
2023-03-04T17:44:03.132Z,38.42
2023-03-04T17:46:29.807Z,40.10
2023-03-04T17:48:59.139Z,33.70
2023-03-04T17:51:31.032Z,28.45
2023-03-04T17:53:57.656Z,33.75
2023-03-04T17:56:29.955Z,40.00
2023-03-04T17:59:01.135Z,39.63
2023-03-04T18:01:28.162Z,32.33
2023-03-04T18:03:55.030Z,33.80
2023-03-04T18:06:30.689Z,27.42
2023-03-04T18:08:57.177Z,35.40
2023-03-04T18:11:26.172Z,31.52
2023-03-04T18:14:01.135Z,40.72
2023-03-04T18:16:29.665Z,36.97
2023-03-04T18:18:58.518Z,36.78
2023-03-04T18:21:26.824Z,37.20
2023-03-04T18:23:53.896Z,33.45
2023-03-04T18:26:23.770Z,34.28
2023-03-04T18:28:55.532Z,33.30
2023-03-04T18:31:25.764Z,35.70
2023-03-04T18:33:52.994Z,38.47
2023-03-04T18:36:22.699Z,36.08
2023-03-04T18:38:51.422Z,41.35
2023-03-04T18:41:18.273Z,42.17
2023-03-04T18:43:45.256Z,36.65
2023-03-04T18:46:22.887Z,40.47
2023-03-04T18:48:56.391Z,35.28
2023-03-04T18:51:23.264Z,35.10
2023-03-04T18:54:55.840Z,39.72
2023-03-04T18:57:25.944Z,46.28
2023-03-04T18:59:58.579Z,38.90
2023-03-04T19:07:23.436Z,40.95
2023-03-04T19:13:24.066Z,41.35
2023-03-04T19:19:11.203Z,38.70
2023-03-04T19:21:38.866Z,40.42
2023-03-04T19:24:05.897Z,38.17
2023-03-04T19:26:32.824Z,46.38
2023-03-04T19:28:59.448Z,41.65
2023-03-04T19:31:25.912Z,43.17
2023-03-04T19:33:55.211Z,45.53
2023-03-04T19:36:23.060Z,51.90
2023-03-04T19:38:49.552Z,37.70
2023-03-04T19:41:17.539Z,47.10
2023-03-04T19:43:45.893Z,42.97
2023-03-04T19:46:13.721Z,46.25
2023-03-04T19:48:40.826Z,44.17
2023-03-04T19:51:20.505Z,41.13
2023-03-04T19:53:47.045Z,47.50
2023-03-04T19:56:13.489Z,47.35
2023-03-04T19:58:40.125Z,47.08
2023-03-04T20:01:06.647Z,44.08
2023-03-04T20:03:36.005Z,47.00
2023-03-04T20:06:05.092Z,51.88
2023-03-04T20:08:31.670Z,43.97
2023-03-04T20:10:58.292Z,47.67
2023-03-04T20:13:24.829Z,46.63
2023-03-04T20:15:51.296Z,53.00
2023-03-04T20:18:17.779Z,50.93
2023-03-04T20:20:44.305Z,53.47
2023-03-04T20:23:10.864Z,47.33
2023-03-04T20:25:37.354Z,53.83
2023-03-04T20:28:03.995Z,58.80
2023-03-04T20:30:30.469Z,52.53
2023-03-04T20:32:56.955Z,60.03
2023-03-04T20:35:27.393Z,53.83
2023-03-04T20:37:56.694Z,53.20
2023-03-04T20:40:26.154Z,55.67
2023-03-04T20:42:55.751Z,52.67
2023-03-04T20:45:25.491Z,48.00
2023-03-04T20:47:54.270Z,59.77
2023-03-04T20:50:20.869Z,54.63
2023-03-04T20:52:48.185Z,46.53
2023-03-04T20:55:14.698Z,39.70
2023-03-04T20:57:41.189Z,55.20
2023-03-04T21:00:10.541Z,42.27
2023-03-04T21:02:37.040Z,50.87
2023-03-04T21:05:03.909Z,48.60
2023-03-04T21:07:30.579Z,46.60
2023-03-04T21:09:57.049Z,52.80
2023-03-04T21:12:26.793Z,53.23
2023-03-04T21:14:56.349Z,43.73
2023-03-04T21:17:26.042Z,48.40
2023-03-04T21:19:56.009Z,43.47
2023-03-04T21:22:25.670Z,50.97
2023-03-04T21:24:54.209Z,47.73
2023-03-04T21:27:20.741Z,43.13
2023-03-04T21:29:49.368Z,48.87
2023-03-04T21:32:25.164Z,51.43
2023-03-04T21:34:55.925Z,53.40
2023-03-04T21:37:26.231Z,52.27
2023-03-04T21:39:58.046Z,45.37
2023-03-04T21:42:28.077Z,42.10
2023-03-04T21:44:57.644Z,48.60
2023-03-04T21:47:27.907Z,42.57
2023-03-04T21:49:57.681Z,44.57
2023-03-04T21:52:28.368Z,46.87
2023-03-04T21:54:58.449Z,37.87
2023-03-04T21:57:28.383Z,39.53
2023-03-04T21:59:58.730Z,43.50
2023-03-04T22:02:28.051Z,39.27
2023-03-04T22:04:56.647Z,41.03
2023-03-04T22:07:23.184Z,40.57
2023-03-04T22:09:49.986Z,38.70
2023-03-04T22:12:18.427Z,38.77
2023-03-04T22:14:46.064Z,36.27
2023-03-04T22:17:12.943Z,42.30
2023-03-04T22:19:39.544Z,43.43
2023-03-04T22:22:06.497Z,34.00
2023-03-04T22:24:33.021Z,40.50
2023-03-04T22:26:59.984Z,41.93
2023-03-04T22:29:29.536Z,44.97
2023-03-04T22:32:00.789Z,39.23
2023-03-04T22:34:28.101Z,39.50
2023-03-04T22:36:54.581Z,36.87
2023-03-04T22:39:22.861Z,38.80
2023-03-04T22:41:49.309Z,41.47
2023-03-04T22:44:16.025Z,37.30
2023-03-04T22:46:43.589Z,34.33
2023-03-04T22:49:12.656Z,34.23
2023-03-04T22:51:41.684Z,37.33
2023-03-04T22:54:10.700Z,32.80
2023-03-04T22:56:37.800Z,43.40
2023-03-04T22:59:04.353Z,34.87
2023-03-04T23:01:31.120Z,37.63
2023-03-04T23:03:59.670Z,41.83
2023-03-04T23:06:30.182Z,37.40
2023-03-04T23:09:02.020Z,40.73
2023-03-04T23:11:35.233Z,34.47
2023-03-04T23:14:06.246Z,32.60
2023-03-04T23:16:36.777Z,36.83
2023-03-04T23:19:05.640Z,34.73
2023-03-04T23:21:34.966Z,35.60
2023-03-04T23:24:03.418Z,35.57
2023-03-04T23:26:35.932Z,37.30
2023-03-04T23:29:04.344Z,44.17
2023-03-04T23:31:32.333Z,42.63
2023-03-04T23:34:02.646Z,40.40
2023-03-04T23:36:35.171Z,40.90
2023-03-04T23:39:02.620Z,44.07
2023-03-04T23:41:31.141Z,37.77
2023-03-04T23:44:01.666Z,39.77
2023-03-04T23:46:29.200Z,42.13
2023-03-04T23:48:56.825Z,38.40
2023-03-04T23:51:27.421Z,30.23
2023-03-04T23:53:54.719Z,36.17
2023-03-04T23:56:23.805Z,32.17
2023-03-04T23:58:50.785Z,34.17
